Terminal Aerodrome Forecast
Issued by NWS Twin Cities, MN

Home | Current Version | Previous Version | Text Only | Print | Product List | Glossary Off
Versions: 1 2 3 4 5 6 7 8 9 10 11 12 13 14 15 16 17 18 19 20 21 22 23 24 25 26 27 28 29 30 31 32

000
FTUS43 KMPX 232000 AAA
TAFMSP
TAF AMD
KMSP 232002Z 2320/2424 31006KT P6SM OVC014
     FM232100 31007KT P6SM SCT020 BKN050 OVC090
     FM240000 31009KT 6SM -SHRA BKN030 OVC050
     FM240400 31011KT 4SM -SHSNRA OVC020
     FM240900 31017G25KT P6SM OVC017
     FM241800 31020G29KT P6SM OVC020=

USA.gov is the U.S. government's official web portal to all federal, state and local government web resources and services.